Time;durP1;ratioP1;P1;durP2;ratioP2;P2;SDS_P1;SDS_P2;PMS_P1;PMS_P2;Temp;Humidity;BMP_temperature;BMP_pressure;BME280_temperature;BME280_humidity;BME280_pressure;Samples;Min_cycle;Max_cycle;Signal;HPM_P1;HPM_P2
2022/06/23 00:01:48;;;;;;;9.00;3.40;;;;;;;14.12;47.12;98660.00;105878;1276;97983;-68
2022/06/23 00:04:23;;;;;;;8.60;4.00;;;;;;;14.08;47.19;98664.52;105880;1276;112114;-68
2022/06/23 00:07:06;;;;;;;11.50;4.30;;;;;;;14.03;47.28;98667.85;105844;1276;97870;-69
2022/06/23 00:09:46;;;;;;;7.40;3.30;;;;;;;13.98;47.37;98665.21;105855;1276;108379;-71
2022/06/23 00:12:18;;;;;;;11.90;4.30;;;;;;;13.91;47.47;98661.92;105835;1276;98022;-69
2022/06/23 00:14:50;;;;;;;8.90;4.00;;;;;;;13.86;47.46;98662.80;105881;1276;98037;-69
2022/06/23 00:17:23;;;;;;;12.10;4.60;;;;;;;13.82;47.61;98664.21;105864;1276;111580;-70
2022/06/23 00:19:54;;;;;;;9.10;4.00;;;;;;;13.79;47.75;98660.95;105843;1276;97897;-69
2022/06/23 00:22:28;;;;;;;9.40;4.10;;;;;;;13.76;47.76;98658.88;105821;1276;106733;-70
2022/06/23 00:25:02;;;;;;;9.60;3.90;;;;;;;13.74;47.82;98657.47;105854;1276;97810;-69
2022/06/23 00:27:35;;;;;;;9.50;4.40;;;;;;;13.72;47.95;98659.27;105929;1276;97967;-71
2022/06/23 00:30:28;;;;;;;10.20;4.10;;;;;;;13.70;48.10;98664.58;105872;1276;112399;-70
2022/06/23 00:33:05;;;;;;;11.40;4.10;;;;;;;13.64;48.19;98667.38;105855;1276;98567;-68
2022/06/23 00:35:34;;;;;;;9.60;4.20;;;;;;;13.58;48.15;98664.23;105838;1276;107956;-69
2022/06/23 00:38:03;;;;;;;11.60;4.80;;;;;;;13.54;48.22;98665.13;105861;1276;98018;-70
2022/06/23 00:40:34;;;;;;;9.30;4.20;;;;;;;13.51;48.35;98663.58;105925;1276;97976;-69
2022/06/23 00:43:04;;;;;;;10.60;4.30;;;;;;;13.50;48.42;98663.89;105883;1276;111426;-72
2022/06/23 00:45:49;;;;;;;10.70;4.20;;;;;;;13.49;48.55;98664.89;105844;1276;97889;-70
2022/06/23 00:48:23;;;;;;;9.80;4.30;;;;;;;13.46;48.64;98660.90;105883;1276;108711;-68
2022/06/23 00:51:13;;;;;;;10.80;4.10;;;;;;;13.42;48.80;98663.00;105902;1276;97957;-70
2022/06/23 00:53:51;;;;;;;12.00;4.20;;;;;;;13.39;48.89;98659.54;105863;1276;96331;-70
2022/06/23 00:56:39;;;;;;;10.20;3.90;;;;;;;13.32;48.90;98657.10;105833;1276;112249;-69
2022/06/23 00:59:32;;;;;;;9.50;4.00;;;;;;;13.25;48.69;98656.70;105834;1276;97815;-70
2022/06/23 01:02:04;;;;;;;;;;;;;;;13.18;49.04;98661.80;105875;1276;107784;-70
2022/06/23 01:04:48;;;;;;;12.30;4.30;;;;;;;13.09;49.03;98660.75;105795;1276;97965;-69
2022/06/23 01:07:43;;;;;;;7.80;3.50;;;;;;;13.07;49.12;98658.98;105850;1276;97990;-69
2022/06/23 01:10:23;;;;;;;11.20;4.60;;;;;;;13.03;49.14;98656.11;105869;1276;111825;-69
2022/06/23 01:12:59;;;;;;;11.50;4.50;;;;;;;13.01;49.44;98651.02;105882;1276;97967;-69
2022/06/23 01:15:43;;;;;;;9.90;3.90;;;;;;;12.98;49.35;98650.34;105940;1276;107710;-69
2022/06/23 01:18:21;;;;;;;10.20;3.90;;;;;;;12.92;49.34;98653.05;105912;1276;97942;-69
2022/06/23 01:21:02;;;;;;;11.80;4.00;;;;;;;12.87;49.46;98651.55;105934;1276;95265;-68
2022/06/23 01:23:52;;;;;;;11.00;4.20;;;;;;;12.85;49.83;98652.97;105884;1276;110393;-70
2022/06/23 01:26:42;;;;;;;9.80;4.50;;;;;;;12.84;49.88;98652.98;105926;1276;97887;-68
2022/06/23 01:29:35;;;;;;;12.50;4.60;;;;;;;12.83;50.06;98650.62;105869;1276;108351;-66
2022/06/23 01:32:26;;;;;;;13.10;4.70;;;;;;;12.82;50.02;98648.03;105912;1276;97834;-67
2022/06/23 01:35:07;;;;;;;10.80;4.20;;;;;;;12.79;50.02;98650.77;105969;1277;95280;-70
2022/06/23 01:37:58;;;;;;;16.00;5.60;;;;;;;12.77;50.18;98650.77;105941;1276;111109;-68
2022/06/23 01:40:43;;;;;;;12.80;5.00;;;;;;;12.75;50.35;98647.02;105930;1276;97906;-69
2022/06/23 01:43:24;;;;;;;13.00;4.70;;;;;;;12.73;50.42;98650.27;105859;1276;108359;-68
2022/06/23 01:46:02;;;;;;;12.70;4.80;;;;;;;12.70;50.47;98648.20;105890;1276;98027;-68
2022/06/23 01:48:51;;;;;;;9.50;4.60;;;;;;;12.69;50.66;98650.41;105886;1276;95403;-70
2022/06/23 01:51:41;;;;;;;14.30;5.20;;;;;;;12.67;50.54;98653.27;105848;1276;111972;-69
2022/06/23 01:54:20;;;;;;;12.10;4.90;;;;;;;12.65;50.82;98652.89;105858;1276;97987;-69
2022/06/23 01:57:01;;;;;;;15.70;5.80;;;;;;;12.63;50.76;98655.52;105937;1276;108773;-69
2022/06/23 01:59:49;;;;;;;14.80;5.20;;;;;;;12.61;50.90;98656.79;105921;1276;97957;-68
2022/06/23 02:02:58;;;;;;;13.00;5.20;;;;;;;12.59;50.94;98662.16;105970;1276;97889;-68
2022/06/23 02:05:51;;;;;;;15.50;5.30;;;;;;;12.52;51.21;98657.91;105945;1276;111388;-68
2022/06/23 02:08:35;;;;;;;14.90;5.40;;;;;;;12.45;51.18;98658.91;105911;1276;97967;-69
2022/06/23 02:11:34;;;;;;;11.70;5.50;;;;;;;12.40;51.32;98659.01;105962;1276;107671;-69
2022/06/23 02:14:40;;;;;;;12.80;5.00;;;;;;;12.37;51.40;98661.91;105886;1276;95308;-69
2022/06/23 02:17:27;;;;;;;14.30;5.40;;;;;;;12.35;51.51;98666.00;105921;1276;97969;-69
2022/06/23 02:20:23;;;;;;;11.60;4.50;;;;;;;12.33;51.48;98670.98;105869;1276;111981;-68
2022/06/23 02:23:14;;;;;;;13.30;5.00;;;;;;;12.27;51.31;98675.94;105915;1276;98584;-68
2022/06/23 02:25:59;;;;;;;13.60;5.20;;;;;;;12.19;51.31;98676.21;105938;1276;108402;-68
2022/06/23 02:28:36;;;;;;;11.40;4.90;;;;;;;12.15;51.68;98679.81;105881;1276;97944;-70
2022/06/23 02:31:33;;;;;;;11.90;4.60;;;;;;;12.13;51.84;98680.14;105891;1276;97845;-67
2022/06/23 02:34:23;;;;;;;13.20;5.50;;;;;;;12.13;51.85;98681.58;105896;1276;112043;-69
2022/06/23 02:37:02;;;;;;;14.10;4.90;;;;;;;12.12;51.98;98685.15;105877;1276;97014;-68
2022/06/23 02:39:36;;;;;;;15.90;6.20;;;;;;;12.12;52.10;98683.61;106002;1277;107519;-70
2022/06/23 02:42:38;;;;;;;13.00;4.90;;;;;;;12.12;52.12;98687.36;105987;1276;97947;-70
2022/06/23 02:45:25;;;;;;;13.90;5.30;;;;;;;12.11;52.23;98691.86;106017;1277;97976;-69
2022/06/23 02:48:35;;;;;;;9.80;4.50;;;;;;;12.10;52.27;98696.42;105972;1277;111924;-68
2022/06/23 02:51:33;;;;;;;11.50;5.10;;;;;;;12.07;52.37;98698.58;105946;1277;97996;-67
2022/06/23 02:54:16;;;;;;;13.30;5.00;;;;;;;12.04;52.60;98705.02;105948;1276;108253;-68
2022/06/23 02:56:58;;;;;;;13.40;4.90;;;;;;;12.03;52.61;98708.16;105917;1276;97976;-67
2022/06/23 02:59:35;;;;;;;14.10;5.00;;;;;;;12.02;52.59;98713.35;105953;1276;97944;-69
2022/06/23 03:02:38;;;;;;;11.20;4.50;;;;;;;12.01;52.49;98715.95;105953;1277;112040;-70
2022/06/23 03:05:12;;;;;;;11.50;4.60;;;;;;;12.01;52.73;98720.06;105922;1279;97932;-67
2022/06/23 03:08:04;;;;;;;13.10;4.50;;;;;;;12.01;52.88;98718.42;105880;1279;106702;-68
2022/06/23 03:10:44;;;;;;;13.80;4.50;;;;;;;12.02;52.84;98726.94;105885;1279;98613;-70
2022/06/23 03:13:25;;;;;;;14.20;5.10;;;;;;;12.02;52.98;98730.99;105923;1279;96336;-69
2022/06/23 03:16:12;;;;;;;16.40;6.30;;;;;;;12.02;53.05;98729.76;105945;1277;111489;-67
2022/06/23 03:18:46;;;;;;;16.00;5.40;;;;;;;12.00;53.04;98731.66;105930;1277;98016;-68
2022/06/23 03:21:25;;;;;;;18.30;6.40;;;;;;;12.00;53.18;98734.49;105898;1277;108479;-66
2022/06/23 03:24:29;;;;;;;16.90;5.70;;;;;;;12.02;53.18;98739.90;105963;1277;97849;-67
2022/06/23 03:27:11;;;;;;;16.90;5.90;;;;;;;12.03;53.44;98742.23;105968;1279;95748;-66
2022/06/23 03:30:26;;;;;;;14.50;5.70;;;;;;;12.05;53.42;98748.47;105915;1278;111183;-67
2022/06/23 03:33:10;;;;;;;16.10;6.10;;;;;;;12.06;53.63;98747.70;105684;1277;97320;-70
2022/06/23 03:35:51;;;;;;;15.10;6.10;;;;;;;12.09;53.35;98748.04;105898;1278;108394;-67
2022/06/23 03:38:22;;;;;;;15.90;6.50;;;;;;;12.13;53.17;98745.74;105994;1278;97897;-68
2022/06/23 03:44:00;;;;;;;18.50;7.00;;;;;;;12.23;53.92;98742.75;105922;1277;111450;-68
2022/06/23 03:46:33;;;;;;;16.40;6.60;;;;;;;12.30;53.96;98743.58;104344;1278;2150307;-69
2022/06/23 03:49:20;;;;;;;18.40;7.10;;;;;;;12.37;54.03;98747.79;106013;1279;107797;-69
2022/06/23 03:51:58;;;;;;;19.10;5.90;;;;;;;12.44;54.12;98752.11;105954;1277;98006;-68
2022/06/23 03:54:57;;;;;;;17.90;6.90;;;;;;;12.51;54.11;98756.88;105903;1276;97934;-67
2022/06/23 03:57:35;;;;;;;17.80;6.20;;;;;;;12.62;54.28;98761.71;105938;1276;111412;-66
2022/06/23 04:00:18;;;;;;;15.90;6.20;;;;;;;12.70;54.18;98765.77;105891;1276;98670;-68
2022/06/23 04:03:11;;;;;;;18.70;6.60;;;;;;;12.78;54.27;98771.83;105883;1276;107936;-70
2022/06/23 04:06:18;;;;;;;15.80;5.90;;;;;;;12.88;54.38;98779.03;105904;1276;98018;-68
2022/06/23 04:08:59;;;;;;;19.10;6.30;;;;;;;12.97;54.57;98779.83;105882;1277;97991;-67
2022/06/23 04:11:45;;;;;;;14.80;5.80;;;;;;;13.06;54.57;98779.22;105988;1276;111213;-71
2022/06/23 04:14:24;;;;;;;15.80;5.50;;;;;;;13.15;54.60;98781.66;106012;1276;97914;-70
2022/06/23 04:17:30;;;;;;;13.50;5.80;;;;;;;13.24;54.52;98785.31;105923;1276;107827;-68
2022/06/23 04:20:12;;;;;;;15.80;6.00;;;;;;;13.34;54.71;98786.25;105931;1276;97930;-68
2022/06/23 04:23:06;;;;;;;12.00;5.30;;;;;;;13.43;54.69;98789.58;105915;1276;95377;-69
2022/06/23 04:25:37;;;;;;;;;;;;;;;13.54;54.65;98793.42;105872;1276;111986;-69
2022/06/23 04:28:13;;;;;;;19.10;6.10;;;;;;;13.60;54.62;98792.31;105943;1276;97997;-68
2022/06/23 04:30:42;;;;;;;16.30;6.10;;;;;;;13.72;54.67;98802.53;105987;1276;107652;-70
2022/06/23 04:33:21;;;;;;;15.90;6.80;;;;;;;13.80;54.64;98802.88;105938;1276;98502;-67
2022/06/23 04:35:55;;;;;;;18.50;6.40;;;;;;;13.89;54.71;98806.86;105993;1276;97960;-69
2022/06/23 04:38:42;;;;;;;;;;;;;;;13.96;54.63;98812.08;106001;1276;111138;-69
2022/06/23 04:41:27;;;;;;;19.20;6.00;;;;;;;14.05;54.86;98822.05;105927;1276;97887;-68
2022/06/23 04:44:06;;;;;;;29.90;7.80;;;;;;;14.15;54.70;98827.54;105903;1276;107823;-65
2022/06/23 04:46:44;;;;;;;19.90;6.40;;;;;;;14.24;54.87;98821.85;105849;1277;98633;-65
2022/06/23 04:49:27;;;;;;;24.00;7.70;;;;;;;14.36;54.89;98820.46;105985;1276;97876;-71
2022/06/23 04:52:12;;;;;;;18.20;7.00;;;;;;;14.46;54.96;98818.94;106034;1276;111354;-66
2022/06/23 04:54:54;;;;;;;18.10;6.40;;;;;;;14.57;54.95;98822.21;106008;1276;97997;-70
2022/06/23 04:58:01;;;;;;;22.80;7.40;;;;;;;14.68;54.92;98822.84;105982;1276;107749;-70
2022/06/23 05:00:44;;;;;;;16.30;6.00;;;;;;;14.79;54.85;98825.40;105946;1276;97922;-78
2022/06/23 05:03:36;;;;;;;18.50;6.20;;;;;;;14.89;54.99;98826.02;106017;1276;96361;-72
2022/06/23 05:06:24;;;;;;;22.40;6.20;;;;;;;14.99;54.93;98829.57;105952;1276;111597;-74
2022/06/23 05:08:54;;;;;;;16.50;6.00;;;;;;;15.09;54.95;98827.80;105947;1276;97941;-73
2022/06/23 05:11:45;;;;;;;16.70;6.00;;;;;;;15.16;54.98;98828.33;105915;1276;107793;-68
2022/06/23 05:14:30;;;;;;;15.60;5.00;;;;;;;15.26;55.01;98835.02;105921;1276;98030;-68
2022/06/23 05:17:06;;;;;;;18.30;5.60;;;;;;;15.38;55.09;98837.70;105953;1276;97912;-69
2022/06/23 05:19:38;;;;;;;15.90;5.50;;;;;;;15.45;55.14;98841.52;105902;1276;111459;-67
2022/06/23 05:22:40;;;;;;;15.80;5.90;;;;;;;15.50;55.06;98840.24;105963;1276;97907;-70
2022/06/23 05:25:20;;;;;;;13.60;5.10;;;;;;;15.54;55.26;98839.88;105871;1278;108959;-77
2022/06/23 05:27:51;;;;;;;18.00;5.70;;;;;;;15.60;55.28;98841.27;105960;1275;96436;-75
2022/06/23 05:30:47;;;;;;;15.10;5.90;;;;;;;15.65;55.19;98846.40;106068;1276;97981;-76
2022/06/23 05:33:31;;;;;;;16.30;6.70;;;;;;;15.70;55.23;98847.77;105947;1276;111219;-73
2022/06/23 05:36:03;;;;;;;18.00;6.00;;;;;;;15.77;55.25;98853.58;105990;1276;97873;-76
2022/06/23 05:38:49;;;;;;;17.40;6.70;;;;;;;15.85;55.27;98855.90;105923;1276;107760;-72
2022/06/23 05:41:31;;;;;;;15.60;5.80;;;;;;;15.96;55.21;98856.94;105927;1276;95254;-70
2022/06/23 05:43:59;;;;;;;18.40;6.30;;;;;;;16.09;55.20;98855.77;105896;1276;97736;-69
2022/06/23 05:46:31;;;;;;;14.90;6.10;;;;;;;16.19;55.14;98859.17;105818;1278;111449;-69
2022/06/23 05:49:05;;;;;;;16.50;6.60;;;;;;;16.29;55.24;98864.80;105964;1276;96359;-69
2022/06/23 05:51:59;;;;;;;16.50;6.20;;;;;;;16.41;55.17;98865.62;105924;1276;107791;-70
2022/06/23 05:54:46;;;;;;;15.20;5.90;;;;;;;16.55;55.21;98863.09;105935;1276;97887;-69
2022/06/23 05:57:37;;;;;;;15.10;5.90;;;;;;;16.73;55.22;98861.89;105952;1276;95614;-69
2022/06/23 06:00:43;;;;;;;15.70;6.10;;;;;;;16.86;54.96;98867.59;105874;1276;111593;-69
2022/06/23 06:03:19;;;;;;;46.90;25.60;;;;;;;16.97;55.42;98870.70;105934;1276;97931;-71
2022/06/23 06:05:56;;;;;;;24.70;10.90;;;;;;;17.09;55.21;98873.10;105856;1276;106472;-68
2022/06/23 06:08:34;;;;;;;18.90;7.20;;;;;;;17.23;55.19;98880.09;105929;1276;96326;-78
2022/06/23 06:11:04;;;;;;;16.90;6.00;;;;;;;17.37;55.01;98876.31;105779;1276;97856;-68
2022/06/23 06:13:37;;;;;;;18.60;6.30;;;;;;;17.49;55.04;98878.30;105886;1276;112782;-69
2022/06/23 06:16:06;;;;;;;15.40;5.60;;;;;;;17.62;55.02;98876.46;105967;1276;97890;-70
2022/06/23 06:18:38;;;;;;;13.50;5.40;;;;;;;17.76;55.04;98880.69;105953;1276;107780;-67
2022/06/23 06:21:10;;;;;;;16.30;5.50;;;;;;;17.90;55.22;98883.20;105924;1276;95613;-69
2022/06/23 06:23:53;;;;;;;13.80;5.60;;;;;;;18.04;55.16;98884.38;105977;1276;97870;-69
2022/06/23 06:26:32;;;;;;;22.50;9.00;;;;;;;18.20;55.06;98882.21;105967;1276;111466;-68
2022/06/23 06:29:19;;;;;;;24.90;10.90;;;;;;;18.33;55.15;98885.44;105949;1276;98017;-69
2022/06/23 06:32:08;;;;;;;19.90;5.70;;;;;;;18.46;54.80;98884.27;105946;1276;107587;-70
2022/06/23 06:34:44;;;;;;;15.00;5.80;;;;;;;18.59;54.60;98885.38;105947;1276;97907;-72
2022/06/23 06:37:15;;;;;;;14.80;5.10;;;;;;;18.73;54.70;98885.28;105970;1276;96717;-69
2022/06/23 06:39:55;;;;;;;14.60;5.30;;;;;;;18.91;54.75;98884.91;105902;1276;111035;-67
2022/06/23 06:42:49;;;;;;;12.10;4.70;;;;;;;19.15;54.90;98887.02;105888;1276;96620;-70
2022/06/23 06:45:18;;;;;;;;;;;;;;;19.44;54.87;98883.87;105989;1276;110001;-70
2022/06/23 06:47:47;;;;;;;15.20;4.80;;;;;;;19.69;54.68;98886.71;105978;1276;97847;-73
2022/06/23 06:50:46;;;;;;;12.30;4.30;;;;;;;19.98;54.61;98886.49;105957;1276;97910;-69
2022/06/23 06:53:22;;;;;;;9.40;4.10;;;;;;;20.40;54.57;98886.65;105907;1276;110153;-70
2022/06/23 06:55:56;;;;;;;10.70;4.30;;;;;;;20.84;54.48;98892.02;105890;1276;98086;-69
2022/06/23 06:58:33;;;;;;;10.10;4.50;;;;;;;21.31;54.24;98891.20;105879;1276;107762;-73
2022/06/23 07:01:07;;;;;;;11.30;4.00;;;;;;;21.97;53.87;98894.89;105946;1276;96874;-74
2022/06/23 07:03:40;;;;;;;7.70;4.00;;;;;;;23.64;52.77;98889.26;105922;1276;96338;-73
2022/06/23 07:06:30;;;;;;;9.50;3.80;;;;;;;25.56;51.89;98890.89;105951;1275;111422;-73
2022/06/23 07:09:13;;;;;;;9.00;3.60;;;;;;;27.45;51.63;98886.13;105895;1276;98299;-69
2022/06/23 07:11:53;;;;;;;10.50;3.50;;;;;;;29.15;51.10;98888.30;105907;1276;105761;-71
2022/06/23 07:14:27;;;;;;;9.70;4.00;;;;;;;30.73;50.88;98891.79;105931;1276;97999;-68
2022/06/23 07:17:04;;;;;;;12.60;3.90;;;;;;;32.12;50.45;98893.33;105922;1276;95205;-71
2022/06/23 07:19:44;;;;;;;8.70;2.80;;;;;;;33.39;48.87;98895.45;105875;1276;111066;-69
2022/06/23 07:22:40;;;;;;;4.00;2.40;;;;;;;34.34;48.89;98899.35;105994;1276;95878;-70
2022/06/23 07:25:25;;;;;;;3.90;2.40;;;;;;;35.50;48.46;98898.52;105855;1276;107160;-71
2022/06/23 07:28:00;;;;;;;6.30;2.40;;;;;;;36.61;47.66;98896.78;105885;1276;97803;-72
2022/06/23 07:30:39;;;;;;;5.50;2.70;;;;;;;37.30;47.06;98896.10;105958;1276;97960;-79
2022/06/23 07:33:27;;;;;;;5.60;2.40;;;;;;;37.97;45.94;98900.34;105933;1276;111372;-81
2022/06/23 07:36:04;;;;;;;5.80;3.20;;;;;;;38.54;44.94;98903.67;105857;1276;97790;-71
2022/06/23 07:38:42;;;;;;;8.20;2.80;;;;;;;38.89;44.78;98908.89;105859;1276;107530;-71
2022/06/23 07:41:39;;;;;;;7.70;2.70;;;;;;;39.42;43.77;98907.52;105870;1276;98018;-71
2022/06/23 07:44:21;;;;;;;7.10;2.70;;;;;;;39.77;42.60;98907.63;105936;1276;96605;-71
2022/06/23 07:46:49;;;;;;;5.90;2.70;;;;;;;39.88;41.51;98909.75;105948;1276;111344;-74
2022/06/23 07:49:28;;;;;;;8.40;2.60;;;;;;;40.15;41.04;98912.29;105932;1276;97406;-73
2022/06/23 07:51:56;;;;;;;6.30;2.50;;;;;;;40.25;40.47;98914.83;105923;1276;107690;-73
2022/06/23 07:54:24;;;;;;;6.70;2.60;;;;;;;40.57;40.01;98908.45;105976;1276;97928;-75
2022/06/23 07:56:55;;;;;;;5.90;2.30;;;;;;;40.86;39.59;98909.30;105866;1276;95947;-75
2022/06/23 07:59:46;;;;;;;8.70;2.30;;;;;;;41.18;38.73;98912.11;105882;1277;111369;-74
2022/06/23 08:02:20;;;;;;;6.20;2.30;;;;;;;41.22;37.14;98915.83;105888;1276;97958;-71
2022/06/23 08:04:59;;;;;;;3.60;2.20;;;;;;;41.31;37.30;98919.77;105894;1276;107821;-71
2022/06/23 08:07:27;;;;;;;4.30;2.70;;;;;;;41.64;36.83;98916.27;105923;1276;95241;-72
2022/06/23 08:10:05;;;;;;;5.40;2.40;;;;;;;41.86;35.93;98915.24;105907;1276;98585;-73
2022/06/23 08:12:55;;;;;;;14.30;4.70;;;;;;;41.95;35.61;98919.51;105878;1276;111408;-71
2022/06/23 08:18:55;;;;;;;5.70;2.70;;;;;;;41.55;34.14;98913.40;105886;1276;107801;-73
2022/06/23 08:21:32;;;;;;;5.70;2.80;;;;;;;41.54;33.74;98914.64;105951;1276;98570;-71
2022/06/23 08:24:05;;;;;;;7.30;2.70;;;;;;;41.43;33.36;98910.46;106016;1276;97886;-69
2022/06/23 08:26:37;;;;;;;6.90;2.60;;;;;;;40.42;32.88;98913.30;105841;1276;111470;-71
2022/06/23 08:29:10;;;;;;;4.10;2.80;;;;;;;40.00;32.33;98915.84;105963;1276;97851;-68
2022/06/23 08:31:39;;;;;;;4.70;2.50;;;;;;;38.82;32.06;98918.81;105738;1276;108165;-70
2022/06/23 08:34:30;;;;;;;6.20;3.30;;;;;;;37.40;31.53;98923.38;105679;1276;97984;-70
2022/06/23 08:37:05;;;;;;;9.70;3.10;;;;;;;36.18;31.21;98926.31;105677;1279;97876;-69
2022/06/23 08:39:42;;;;;;;7.50;2.90;;;;;;;35.45;31.11;98931.39;105817;1277;111374;-70
2022/06/23 08:42:38;;;;;;;6.60;2.70;;;;;;;35.17;30.75;98933.79;105849;1277;98402;-76
2022/06/23 08:45:32;;;;;;;6.90;2.20;;;;;;;34.24;30.73;98930.07;105750;1276;107737;-71
2022/06/23 08:48:19;;;;;;;11.20;3.10;;;;;;;33.47;30.57;98928.94;105829;1277;97936;-75
2022/06/23 08:51:07;;;;;;;6.90;2.80;;;;;;;32.85;30.52;98928.95;105862;1276;97833;-72
2022/06/23 08:53:59;;;;;;;5.80;2.70;;;;;;;33.22;29.82;98931.45;105842;1276;111432;-67
2022/06/23 08:56:36;;;;;;;4.50;2.50;;;;;;;33.29;29.85;98929.45;105913;1276;95973;-72
2022/06/23 08:59:23;;;;;;;4.50;3.20;;;;;;;32.92;30.08;98927.80;105955;1276;107604;-67
2022/06/23 09:02:10;;;;;;;4.90;2.60;;;;;;;33.18;30.01;98926.20;105922;1276;96470;-74
2022/06/23 09:05:05;;;;;;;3.80;2.20;;;;;;;33.77;29.96;98923.77;105907;1276;99304;-68
2022/06/23 09:07:47;;;;;;;8.60;2.40;;;;;;;34.29;29.45;98920.81;105960;1276;111443;-69
2022/06/23 09:10:36;;;;;;;3.70;2.30;;;;;;;34.72;29.26;98921.63;105924;1276;95706;-70
2022/06/23 09:13:07;;;;;;;2.50;1.80;;;;;;;35.03;29.08;98917.89;106016;1276;107762;-71
2022/06/23 09:15:56;;;;;;;5.80;2.10;;;;;;;35.28;29.28;98914.77;105988;1276;97931;-73
2022/06/23 09:18:53;;;;;;;4.50;2.20;;;;;;;35.59;28.86;98914.66;106024;1276;96311;-71
2022/06/23 09:22:01;;;;;;;7.00;2.70;;;;;;;35.80;28.73;98913.87;105771;1276;111188;-78
2022/06/23 09:24:55;;;;;;;2.60;1.80;;;;;;;35.83;28.33;98914.30;106019;1276;96576;-75
2022/06/23 09:27:55;;;;;;;3.30;1.90;;;;;;;35.85;28.72;98917.06;105979;1276;107649;-70
2022/06/23 09:30:34;;;;;;;3.20;2.10;;;;;;;35.78;28.12;98912.77;105992;1276;98060;-77
2022/06/23 09:33:22;;;;;;;9.10;2.30;;;;;;;35.10;28.15;98914.69;106003;1276;97913;-78
2022/06/23 09:36:02;;;;;;;3.50;2.00;;;;;;;34.92;28.16;98913.41;106060;1278;113112;-75
2022/06/23 09:38:55;;;;;;;4.20;2.40;;;;;;;34.93;28.21;98910.59;106009;1276;95730;-78
2022/06/23 09:41:38;;;;;;;5.30;2.30;;;;;;;34.66;27.97;98912.51;106007;1276;107784;-75
2022/06/23 09:44:27;;;;;;;4.00;2.50;;;;;;;34.07;28.06;98911.30;106039;1276;95321;-77
2022/06/23 09:47:25;;;;;;;4.60;2.50;;;;;;;33.43;27.72;98907.08;106031;1277;99330;-72
2022/06/23 09:50:09;;;;;;;2.90;1.80;;;;;;;32.73;27.70;98912.98;105910;1278;111415;-73
2022/06/23 09:52:57;;;;;;;3.40;1.70;;;;;;;32.20;27.84;98916.23;106006;1275;98495;-74
2022/06/23 09:55:51;;;;;;;3.40;2.20;;;;;;;32.12;27.74;98914.64;105964;1276;108165;-73
2022/06/23 09:58:43;;;;;;;6.80;2.90;;;;;;;31.93;27.60;98917.44;105986;1276;97967;-77
2022/06/23 10:01:49;;;;;;;5.80;2.30;;;;;;;31.71;27.76;98922.98;105986;1276;95260;-77
2022/06/23 10:05:14;;;;;;;3.20;2.00;;;;;;;31.49;27.53;98921.03;105950;1276;112423;-72
2022/06/23 10:08:05;;;;;;;4.70;1.90;;;;;;;31.38;27.43;98915.46;105601;1281;98371;-69
2022/06/23 10:10:54;;;;;;;2.40;1.60;;;;;;;31.26;27.34;98913.66;105732;1281;107749;-68
2022/06/23 10:13:30;;;;;;;4.80;2.50;;;;;;;30.96;27.40;98913.72;106001;1276;97883;-72
2022/06/23 10:16:04;;;;;;;3.70;2.30;;;;;;;30.75;27.39;98913.92;106052;1276;97847;-77
2022/06/23 10:18:44;;;;;;;6.00;2.70;;;;;;;30.53;27.28;98910.79;105995;1276;111392;-78
2022/06/23 10:21:47;;;;;;;3.50;2.40;;;;;;;30.28;27.55;98915.15;105879;1276;98304;-82
2022/06/23 10:24:28;;;;;;;5.90;2.80;;;;;;;29.96;27.34;98918.06;105796;1278;107790;-75
2022/06/23 10:27:05;;;;;;;7.70;2.40;;;;;;;29.46;27.36;98918.20;105842;1279;97979;-74
2022/06/23 10:30:01;;;;;;;5.80;2.60;;;;;;;28.95;27.26;98919.16;106002;1276;97846;-75
2022/06/23 10:33:15;;;;;;;5.60;2.30;;;;;;;28.35;27.59;98920.08;105982;1276;111404;-74
2022/06/23 10:36:14;;;;;;;4.00;2.30;;;;;;;28.09;27.87;98923.83;106022;1276;97870;-74
2022/06/23 10:38:54;;;;;;;4.20;2.60;;;;;;;27.86;27.89;98925.09;105928;1276;107593;-75
2022/06/23 10:41:46;;;;;;;5.00;2.50;;;;;;;27.63;27.79;98919.93;105976;1276;97896;-75
2022/06/23 10:44:39;;;;;;;4.20;2.40;;;;;;;27.47;27.91;98923.70;106030;1276;96440;-75
2022/06/23 10:47:19;;;;;;;4.50;2.00;;;;;;;27.40;27.99;98925.48;105983;1276;111701;-75
2022/06/23 10:50:14;;;;;;;6.00;2.70;;;;;;;27.29;27.84;98922.85;106013;1276;97980;-73
2022/06/23 10:53:21;;;;;;;7.30;2.80;;;;;;;27.07;28.07;98917.02;105981;1276;106276;-71
2022/06/23 10:56:08;;;;;;;7.20;2.60;;;;;;;26.93;28.21;98911.92;105944;1276;97969;-71
2022/06/23 10:58:48;;;;;;;4.40;2.50;;;;;;;26.77;28.55;98909.91;106007;1276;98059;-72
2022/06/23 11:01:47;;;;;;;5.90;3.30;;;;;;;26.71;28.57;98906.15;105985;1276;111431;-76
2022/06/23 11:04:24;;;;;;;10.00;2.60;;;;;;;26.69;28.46;98906.11;106000;1276;97882;-75
2022/06/23 11:07:05;;;;;;;4.30;2.40;;;;;;;26.69;28.57;98907.76;105986;1278;107769;-74
2022/06/23 11:10:39;;;;;;;4.30;2.40;;;;;;;26.74;28.56;98900.80;105999;1276;97970;-69
2022/06/23 11:13:41;;;;;;;4.80;2.30;;;;;;;26.77;28.91;98906.30;105560;1282;97915;-70
2022/06/23 11:16:29;;;;;;;4.60;2.60;;;;;;;26.79;29.15;98904.23;105568;1281;111053;-71
2022/06/23 11:19:39;;;;;;;7.10;3.00;;;;;;;26.82;29.08;98905.59;106023;1276;98118;-71
2022/06/23 11:22:29;;;;;;;4.70;2.30;;;;;;;26.83;28.94;98909.78;105695;1276;107845;-72
2022/06/23 11:25:34;;;;;;;3.70;2.20;;;;;;;26.78;28.96;98907.09;105988;1276;97895;-72
2022/06/23 11:28:24;;;;;;;5.60;2.30;;;;;;;26.66;29.28;98910.71;106024;1276;97771;-70
2022/06/23 11:31:24;;;;;;;5.10;2.10;;;;;;;26.64;29.16;98914.42;106014;1276;111319;-71
2022/06/23 11:34:11;;;;;;;5.30;2.10;;;;;;;26.61;29.23;98919.35;106018;1276;97777;-72
2022/06/23 11:36:47;;;;;;;5.50;2.40;;;;;;;26.61;29.17;98922.63;106028;1276;107751;-73
2022/06/23 11:40:06;;;;;;;4.00;2.50;;;;;;;26.56;29.43;98916.02;106006;1276;95288;-72
2022/06/23 11:42:55;;;;;;;4.70;2.60;;;;;;;26.57;29.54;98920.42;105576;1282;97986;-70
2022/06/23 11:45:34;;;;;;;5.00;2.60;;;;;;;26.61;29.55;98921.83;105985;1276;111205;-67
2022/06/23 11:48:20;;;;;;;3.40;2.40;;;;;;;26.62;29.33;98914.64;106019;1276;97926;-70
2022/06/23 11:51:12;;;;;;;5.50;2.40;;;;;;;26.63;29.73;98910.87;105878;1278;107679;-69
2022/06/23 11:53:47;;;;;;;4.50;2.30;;;;;;;26.65;29.95;98910.02;105996;1277;97873;-73
2022/06/23 11:56:42;;;;;;;5.20;2.60;;;;;;;26.65;29.79;98906.20;106034;1276;95323;-73
2022/06/23 11:59:45;;;;;;;3.80;2.30;;;;;;;26.64;29.99;98904.17;105984;1276;111391;-73
2022/06/23 12:02:43;;;;;;;3.90;2.30;;;;;;;26.57;29.75;98904.39;105984;1276;95474;-71
2022/06/23 12:05:49;;;;;;;7.10;2.30;;;;;;;26.50;30.02;98908.84;105803;1278;106748;-71
2022/06/23 12:08:28;;;;;;;7.90;2.70;;;;;;;26.45;30.22;98907.20;105829;1276;97191;-75
2022/06/23 12:10:56;;;;;;;5.80;2.30;;;;;;;26.42;30.22;98907.31;106026;1276;97853;-74
2022/06/23 12:13:27;;;;;;;5.70;2.20;;;;;;;26.39;30.31;98908.84;105932;1278;111459;-71
2022/06/23 12:15:55;;;;;;;6.40;2.40;;;;;;;26.38;30.35;98907.07;105929;1276;98177;-72
2022/06/23 12:18:26;;;;;;;4.10;2.50;;;;;;;26.39;30.25;98905.77;105876;1276;106798;-71
2022/06/23 12:21:01;;;;;;;2.70;2.30;;;;;;;26.35;30.24;98901.73;105897;1276;97904;-71
2022/06/23 12:24:09;;;;;;;5.30;2.90;;;;;;;26.34;30.36;98896.44;105812;1278;96393;-72
2022/06/23 12:26:46;;;;;;;3.90;2.30;;;;;;;26.29;30.38;98898.02;105565;1280;111174;-72
2022/06/23 12:29:14;;;;;;;5.50;2.70;;;;;;;26.24;30.38;98895.83;105840;1276;98564;-71
2022/06/23 12:32:01;;;;;;;4.60;2.30;;;;;;;26.21;30.34;98892.57;105852;1277;107749;-72
2022/06/23 12:35:04;;;;;;;4.00;2.50;;;;;;;26.16;30.36;98895.30;105881;1276;97899;-72
2022/06/23 12:37:50;;;;;;;7.30;2.40;;;;;;;26.17;30.59;98892.35;105748;1276;99158;-73
2022/06/23 12:40:21;;;;;;;4.30;2.50;;;;;;;26.18;30.71;98894.35;105707;1278;111390;-70
2022/06/23 12:42:55;;;;;;;11.00;3.60;;;;;;;26.20;30.54;98890.63;105851;1276;95824;-72
2022/06/23 12:45:23;;;;;;;4.90;2.70;;;;;;;26.20;30.52;98888.77;105912;1278;107859;-71